createdAt,value
2023-06-16T00:00:35.848Z,0.00
2023-06-16T00:01:35.953Z,0.00
2023-06-16T00:02:35.857Z,0.00
2023-06-16T00:03:35.944Z,0.00
2023-06-16T00:04:35.804Z,0.00
2023-06-16T00:05:36.181Z,0.00
2023-06-16T00:06:35.787Z,0.00
2023-06-16T00:07:35.773Z,0.00
2023-06-16T00:08:35.760Z,0.00
2023-06-16T00:09:35.756Z,0.00
2023-06-16T00:10:35.744Z,0.00
2023-06-16T00:11:35.742Z,0.00
2023-06-16T00:12:35.718Z,0.00
2023-06-16T00:13:35.704Z,0.00
2023-06-16T00:14:35.696Z,0.00
2023-06-16T00:15:35.687Z,0.00
2023-06-16T00:16:35.669Z,0.00
2023-06-16T00:17:35.691Z,0.00
2023-06-16T00:18:35.662Z,0.00
2023-06-16T00:19:35.634Z,0.00
2023-06-16T00:20:35.644Z,0.00
2023-06-16T00:21:35.816Z,0.00
2023-06-16T00:22:35.602Z,0.00
2023-06-16T00:23:35.592Z,0.00
2023-06-16T00:24:35.583Z,0.00
2023-06-16T00:25:35.579Z,0.00
2023-06-16T00:26:35.562Z,0.00
2023-06-16T00:27:35.562Z,0.00
2023-06-16T00:28:35.538Z,0.00
2023-06-16T00:29:35.531Z,0.00
2023-06-16T00:30:36.770Z,0.00
2023-06-16T00:31:35.503Z,0.00
2023-06-16T00:32:35.552Z,0.00
2023-06-16T00:33:35.516Z,0.00
2023-06-16T00:34:35.466Z,0.00
2023-06-16T00:35:35.454Z,0.00
2023-06-16T00:36:35.453Z,0.00
2023-06-16T00:37:35.459Z,0.00
2023-06-16T00:38:35.421Z,0.00
2023-06-16T00:39:35.444Z,0.00
2023-06-16T00:40:35.399Z,0.00
2023-06-16T00:41:35.389Z,0.00
2023-06-16T00:42:35.396Z,0.00
2023-06-16T00:43:35.380Z,0.00
2023-06-16T00:44:35.354Z,0.00
2023-06-16T00:45:35.349Z,0.00
2023-06-16T00:46:35.382Z,0.00
2023-06-16T00:47:35.348Z,0.00
2023-06-16T00:48:35.312Z,0.00
2023-06-16T00:49:35.309Z,0.00
2023-06-16T00:50:35.284Z,0.00
2023-06-16T00:51:35.282Z,0.00
2023-06-16T00:52:35.270Z,0.00
2023-06-16T00:53:35.288Z,0.00
2023-06-16T00:54:35.245Z,0.00
2023-06-16T00:55:35.273Z,0.00
2023-06-16T00:56:35.233Z,0.00
2023-06-16T00:57:35.210Z,0.00
2023-06-16T00:58:35.196Z,0.00
2023-06-16T00:59:35.191Z,0.00
2023-06-16T01:00:35.174Z,0.00
2023-06-16T01:01:35.160Z,0.00
2023-06-16T01:02:35.230Z,0.00
2023-06-16T01:03:35.153Z,0.00
2023-06-16T01:04:35.132Z,0.00
2023-06-16T01:05:35.119Z,0.00
2023-06-16T01:06:35.118Z,0.00
2023-06-16T01:07:35.106Z,0.00
2023-06-16T01:08:35.124Z,0.00
2023-06-16T01:09:35.100Z,0.00
2023-06-16T01:10:35.068Z,0.00
2023-06-16T01:11:35.061Z,0.00
2023-06-16T01:12:35.045Z,0.00
2023-06-16T01:13:35.030Z,0.00
2023-06-16T01:14:35.021Z,0.00
2023-06-16T01:15:35.006Z,0.00
2023-06-16T01:16:35.023Z,0.00
2023-06-16T01:17:35.021Z,0.00
2023-06-16T01:18:34.989Z,0.00
2023-06-16T01:19:34.969Z,0.00
2023-06-16T01:20:34.954Z,0.00
2023-06-16T01:21:34.946Z,0.00
2023-06-16T01:22:35.082Z,0.00
2023-06-16T01:23:34.924Z,0.00
2023-06-16T01:24:35.045Z,0.00
2023-06-16T01:25:34.937Z,0.00
2023-06-16T01:26:34.905Z,0.00
2023-06-16T01:27:34.886Z,0.00
2023-06-16T01:28:34.869Z,0.00
2023-06-16T01:29:34.853Z,0.00
2023-06-16T01:30:34.840Z,0.00
2023-06-16T01:31:34.830Z,0.00
2023-06-16T01:32:34.908Z,0.00
2023-06-16T01:33:34.818Z,0.00
2023-06-16T01:34:34.801Z,0.00
2023-06-16T01:35:34.787Z,0.00
2023-06-16T01:36:34.773Z,0.00
2023-06-16T01:37:34.759Z,0.00
2023-06-16T01:38:34.777Z,0.00
2023-06-16T01:39:34.739Z,0.00
2023-06-16T01:40:34.734Z,0.00
2023-06-16T01:41:34.744Z,0.00
2023-06-16T01:42:34.707Z,0.00
2023-06-16T01:43:34.693Z,0.00
2023-06-16T01:44:34.697Z,0.00
2023-06-16T01:45:34.679Z,0.00
2023-06-16T01:46:34.775Z,0.00
2023-06-16T01:47:34.804Z,0.00
2023-06-16T01:48:34.643Z,0.00
2023-06-16T01:49:34.638Z,0.00
2023-06-16T01:50:34.617Z,0.00
2023-06-16T01:51:34.626Z,0.00
2023-06-16T01:52:34.596Z,0.00
2023-06-16T01:53:34.581Z,0.00
2023-06-16T01:54:34.571Z,0.00
2023-06-16T01:55:34.567Z,0.00
2023-06-16T01:56:34.556Z,0.00
2023-06-16T01:57:34.584Z,0.00
2023-06-16T01:58:34.529Z,0.00
2023-06-16T01:59:34.522Z,0.00
2023-06-16T02:00:34.507Z,0.00
2023-06-16T02:01:34.514Z,0.00
2023-06-16T02:02:34.527Z,0.00
2023-06-16T02:03:34.551Z,0.00
2023-06-16T02:04:34.467Z,0.00
2023-06-16T02:05:34.461Z,0.00
2023-06-16T02:06:34.440Z,0.00
2023-06-16T02:07:34.427Z,0.00
2023-06-16T02:08:34.426Z,0.00
2023-06-16T02:09:34.407Z,0.00
2023-06-16T02:10:34.396Z,0.00
2023-06-16T02:11:34.400Z,0.00
2023-06-16T02:12:34.386Z,0.00
2023-06-16T02:13:34.401Z,0.00
2023-06-16T02:14:34.403Z,0.00
2023-06-16T02:15:34.353Z,0.00
2023-06-16T02:16:34.381Z,0.00
2023-06-16T02:17:34.380Z,0.00
2023-06-16T02:18:34.323Z,0.00
2023-06-16T02:19:34.295Z,0.00
2023-06-16T02:20:34.282Z,0.00
2023-06-16T02:21:34.281Z,0.00
2023-06-16T02:22:34.261Z,0.00
2023-06-16T02:23:34.259Z,0.00
2023-06-16T02:24:34.305Z,0.00
2023-06-16T02:25:34.235Z,0.00
2023-06-16T02:26:34.216Z,0.00
2023-06-16T02:27:34.206Z,0.00
2023-06-16T02:28:34.242Z,0.00
2023-06-16T02:29:34.209Z,0.00
2023-06-16T02:30:34.173Z,0.00
2023-06-16T02:31:34.238Z,0.00
2023-06-16T02:32:34.158Z,0.00
2023-06-16T02:33:34.201Z,0.00
2023-06-16T02:34:34.137Z,0.00
2023-06-16T02:35:34.116Z,0.00
2023-06-16T02:36:34.107Z,0.00
2023-06-16T02:37:34.113Z,0.00
2023-06-16T02:38:34.085Z,0.00
2023-06-16T02:39:34.080Z,0.00
2023-06-16T02:40:34.060Z,0.00
2023-06-16T02:41:34.062Z,0.00
2023-06-16T02:42:34.035Z,0.00
2023-06-16T02:43:34.029Z,0.00
2023-06-16T02:44:34.018Z,0.00
2023-06-16T02:45:34.033Z,0.00
2023-06-16T02:46:34.020Z,0.00
2023-06-16T02:47:34.000Z,0.00
2023-06-16T02:48:33.971Z,0.00
2023-06-16T02:49:33.972Z,0.00
2023-06-16T02:50:33.950Z,0.00
2023-06-16T02:51:33.936Z,0.00
2023-06-16T02:52:33.926Z,0.00
2023-06-16T02:53:33.918Z,0.00
2023-06-16T02:54:33.900Z,0.00
2023-06-16T02:55:33.892Z,0.00
2023-06-16T02:56:33.879Z,0.00
2023-06-16T02:57:33.876Z,0.00
2023-06-16T02:58:33.860Z,0.00
2023-06-16T02:59:33.841Z,0.00
2023-06-16T03:00:33.846Z,0.00
2023-06-16T03:01:33.954Z,0.00
2023-06-16T03:02:34.219Z,0.00
2023-06-16T03:03:33.993Z,0.00
2023-06-16T03:04:33.820Z,0.00
2023-06-16T03:05:33.779Z,0.00
2023-06-16T03:06:33.771Z,0.00
2023-06-16T03:07:33.751Z,0.00
2023-06-16T03:08:33.747Z,0.00
2023-06-16T03:09:33.866Z,0.00
2023-06-16T03:10:33.731Z,0.00
2023-06-16T03:11:33.751Z,0.00
2023-06-16T03:12:33.717Z,0.00
2023-06-16T03:13:33.690Z,0.00
2023-06-16T03:14:33.694Z,0.00
2023-06-16T03:15:33.669Z,0.00
2023-06-16T03:16:33.672Z,5.62
2023-06-16T03:17:33.734Z,5.62
2023-06-16T03:18:33.635Z,5.62
2023-06-16T03:19:33.621Z,5.62
2023-06-16T03:20:33.622Z,5.62
2023-06-16T03:21:33.619Z,5.62
2023-06-16T03:22:33.589Z,5.62
2023-06-16T03:23:33.578Z,5.62
2023-06-16T03:24:33.672Z,5.62
2023-06-16T03:25:33.553Z,5.62
2023-06-16T03:26:33.542Z,11.25
2023-06-16T03:27:33.534Z,11.25
2023-06-16T03:28:33.535Z,11.25
2023-06-16T03:29:33.523Z,11.25
2023-06-16T03:30:33.493Z,11.25
2023-06-16T03:31:33.483Z,11.25
2023-06-16T03:32:33.506Z,11.25
2023-06-16T03:33:33.490Z,16.88
2023-06-16T03:34:33.469Z,16.88
2023-06-16T03:35:33.455Z,16.88
2023-06-16T03:36:33.431Z,16.88
2023-06-16T03:37:33.424Z,16.88
2023-06-16T03:38:33.453Z,16.88
2023-06-16T03:39:33.406Z,16.88
2023-06-16T03:40:33.396Z,22.50
2023-06-16T03:41:33.384Z,22.50
2023-06-16T03:42:33.361Z,22.50
2023-06-16T03:43:33.356Z,22.50
2023-06-16T03:44:33.347Z,22.50
2023-06-16T03:45:33.350Z,22.50
2023-06-16T03:46:33.319Z,28.12
2023-06-16T03:47:33.358Z,28.12
2023-06-16T03:48:33.414Z,28.12
2023-06-16T03:49:33.323Z,28.12
2023-06-16T03:50:33.272Z,28.12
2023-06-16T03:51:33.266Z,33.75
2023-06-16T03:52:33.262Z,33.75
2023-06-16T03:53:33.240Z,33.75
2023-06-16T03:54:33.230Z,33.75
2023-06-16T03:55:33.224Z,33.75
2023-06-16T03:56:33.213Z,39.38
2023-06-16T03:57:33.272Z,39.38
2023-06-16T03:58:33.338Z,39.38
2023-06-16T03:59:33.175Z,39.38
2023-06-16T04:00:33.160Z,39.38
2023-06-16T04:01:33.250Z,45.00
2023-06-16T04:02:33.172Z,45.00
2023-06-16T04:03:35.902Z,45.00
2023-06-16T04:04:33.119Z,45.00
2023-06-16T04:05:33.131Z,45.00
2023-06-16T04:06:33.097Z,45.00
2023-06-16T04:07:33.100Z,50.62
2023-06-16T04:08:33.076Z,50.62
2023-06-16T04:09:33.070Z,50.62
2023-06-16T04:10:33.058Z,50.62
2023-06-16T04:11:33.042Z,50.62
2023-06-16T04:12:33.038Z,50.62
2023-06-16T04:13:33.049Z,56.25
2023-06-16T04:14:33.010Z,56.25
2023-06-16T04:15:33.005Z,56.25
2023-06-16T04:16:32.985Z,56.25
2023-06-16T04:17:32.986Z,56.25
2023-06-16T04:18:32.967Z,56.25
2023-06-16T04:19:32.969Z,61.88
2023-06-16T04:20:32.942Z,61.88
2023-06-16T04:21:33.028Z,61.88
2023-06-16T04:22:32.922Z,61.88
2023-06-16T04:23:32.920Z,61.88
2023-06-16T04:24:33.025Z,61.88
2023-06-16T04:25:32.888Z,67.50
2023-06-16T04:26:32.879Z,67.50
2023-06-16T04:27:32.862Z,67.50
2023-06-16T04:28:32.854Z,67.50
2023-06-16T04:29:32.861Z,67.50
2023-06-16T04:30:32.857Z,67.50
2023-06-16T04:31:32.830Z,67.50
2023-06-16T04:32:32.826Z,73.12
2023-06-16T04:33:32.803Z,73.12
2023-06-16T04:34:33.114Z,73.12
2023-06-16T04:35:32.814Z,73.12
2023-06-16T04:36:32.770Z,73.12
2023-06-16T04:37:32.780Z,73.12
2023-06-16T04:38:32.742Z,73.12
2023-06-16T04:39:32.756Z,78.75
2023-06-16T04:40:32.735Z,78.75
2023-06-16T04:41:32.711Z,78.75
2023-06-16T04:42:32.705Z,78.75
2023-06-16T04:43:32.703Z,78.75
2023-06-16T04:44:32.692Z,84.38
2023-06-16T04:45:32.789Z,84.38
2023-06-16T04:46:32.684Z,84.38
2023-06-16T04:47:32.675Z,84.38
2023-06-16T04:48:32.635Z,84.38
2023-06-16T04:49:32.655Z,90.00
2023-06-16T04:50:32.618Z,90.00
2023-06-16T04:51:32.604Z,90.00
2023-06-16T04:52:32.603Z,90.00
2023-06-16T04:53:32.601Z,90.00
2023-06-16T04:54:32.640Z,90.00
2023-06-16T04:55:32.588Z,90.00
2023-06-16T04:56:32.567Z,90.00
2023-06-16T04:57:32.536Z,90.00
2023-06-16T04:58:32.522Z,90.00
2023-06-16T04:59:33.430Z,95.62
2023-06-16T05:00:32.500Z,95.62
2023-06-16T05:01:32.551Z,95.62
2023-06-16T05:02:32.571Z,101.25
2023-06-16T05:03:32.542Z,101.25
2023-06-16T05:04:32.458Z,101.25
2023-06-16T05:05:32.464Z,101.25
2023-06-16T05:06:32.455Z,106.88
2023-06-16T05:07:32.440Z,106.88
2023-06-16T05:08:32.410Z,106.88
2023-06-16T05:09:32.445Z,106.88
2023-06-16T05:10:32.432Z,106.88
2023-06-16T05:11:32.394Z,106.88
2023-06-16T05:12:32.372Z,106.88
2023-06-16T05:13:32.359Z,112.50
2023-06-16T05:14:32.374Z,112.50
2023-06-16T05:15:32.368Z,112.50
2023-06-16T05:16:32.333Z,112.50
2023-06-16T05:17:32.446Z,112.50
2023-06-16T05:18:32.381Z,112.50
2023-06-16T05:19:32.308Z,112.50
2023-06-16T05:20:32.337Z,118.12
2023-06-16T05:21:32.286Z,118.12
2023-06-16T05:22:32.253Z,118.12
2023-06-16T05:23:40.059Z,118.12
2023-06-16T05:24:32.266Z,118.12
2023-06-16T05:25:32.268Z,118.12
2023-06-16T05:26:32.245Z,118.12
2023-06-16T05:27:32.198Z,118.12
2023-06-16T05:28:32.191Z,123.75
2023-06-16T05:29:32.212Z,123.75
2023-06-16T05:30:32.237Z,123.75
2023-06-16T05:31:32.186Z,123.75
2023-06-16T05:32:32.170Z,123.75
2023-06-16T05:33:32.180Z,123.75
2023-06-16T05:34:32.146Z,123.75
2023-06-16T05:35:32.155Z,123.75
2023-06-16T05:36:32.101Z,123.75
2023-06-16T05:37:32.100Z,123.75
2023-06-16T05:38:32.088Z,123.75
2023-06-16T05:39:32.085Z,129.38
2023-06-16T05:40:32.057Z,129.38
2023-06-16T05:41:32.089Z,129.38
2023-06-16T05:42:32.030Z,129.38
2023-06-16T05:43:32.056Z,129.38
2023-06-16T05:44:32.029Z,129.38
2023-06-16T05:45:32.019Z,129.38
2023-06-16T05:46:31.992Z,129.38
2023-06-16T05:47:32.078Z,129.38
2023-06-16T05:48:31.994Z,129.38
2023-06-16T05:49:31.976Z,129.38
2023-06-16T05:50:31.977Z,129.38
2023-06-16T05:51:31.932Z,135.00
2023-06-16T05:52:31.924Z,135.00
2023-06-16T05:53:31.931Z,135.00
2023-06-16T05:54:31.929Z,135.00
2023-06-16T05:55:31.888Z,135.00
2023-06-16T05:56:31.896Z,135.00
2023-06-16T05:57:31.925Z,135.00
2023-06-16T05:58:31.937Z,135.00
2023-06-16T05:59:31.886Z,135.00
2023-06-16T06:00:31.918Z,135.00
2023-06-16T06:01:31.842Z,135.00
2023-06-16T06:02:31.965Z,135.00
2023-06-16T06:03:32.034Z,140.62
2023-06-16T06:04:31.942Z,140.62
2023-06-16T06:05:31.838Z,140.62
2023-06-16T06:06:31.762Z,140.62
2023-06-16T06:07:31.743Z,140.62
2023-06-16T06:08:31.764Z,140.62
2023-06-16T06:09:31.738Z,140.62
2023-06-16T06:10:31.723Z,140.62
2023-06-16T06:11:31.742Z,140.62
2023-06-16T06:12:31.701Z,140.62
2023-06-16T06:13:31.774Z,140.62
2023-06-16T06:14:31.744Z,140.62
2023-06-16T06:15:31.658Z,140.62
2023-06-16T06:16:31.678Z,140.62
2023-06-16T06:17:31.683Z,140.62
2023-06-16T06:18:31.672Z,140.62
2023-06-16T06:19:31.626Z,140.62
2023-06-16T06:20:31.602Z,146.25
2023-06-16T06:21:31.643Z,146.25
2023-06-16T06:22:31.627Z,146.25
2023-06-16T06:23:31.584Z,146.25
2023-06-16T06:24:31.680Z,146.25
2023-06-16T06:25:31.607Z,146.25
2023-06-16T06:26:31.661Z,146.25
2023-06-16T06:27:31.557Z,146.25
2023-06-16T06:28:31.528Z,146.25
2023-06-16T06:29:31.576Z,146.25
2023-06-16T06:30:31.492Z,146.25
2023-06-16T06:31:31.493Z,146.25
2023-06-16T06:32:31.530Z,146.25
2023-06-16T06:33:31.472Z,146.25
2023-06-16T06:34:31.447Z,146.25
2023-06-16T06:35:31.464Z,146.25
2023-06-16T06:36:31.478Z,146.25
2023-06-16T06:37:31.431Z,146.25
2023-06-16T06:38:32.343Z,146.25
2023-06-16T06:39:31.390Z,151.88
2023-06-16T06:40:31.384Z,151.88
2023-06-16T06:41:31.389Z,151.88
2023-06-16T06:42:31.372Z,151.88
2023-06-16T06:43:31.361Z,151.88
2023-06-16T06:44:31.385Z,151.88
2023-06-16T06:45:31.348Z,151.88
2023-06-16T06:46:31.371Z,151.88
2023-06-16T06:47:31.361Z,151.88
2023-06-16T06:48:31.297Z,151.88
2023-06-16T06:49:31.275Z,151.88
2023-06-16T06:50:31.282Z,151.88
2023-06-16T06:51:31.259Z,151.88
2023-06-16T06:52:31.908Z,151.88
2023-06-16T06:53:31.238Z,151.88
2023-06-16T06:54:31.229Z,151.88
2023-06-16T06:55:31.230Z,151.88
2023-06-16T06:56:31.280Z,151.88
2023-06-16T06:57:31.215Z,151.88
2023-06-16T06:58:31.202Z,151.88
2023-06-16T06:59:31.167Z,151.88
2023-06-16T07:00:31.175Z,151.88
2023-06-16T07:01:31.305Z,151.88
2023-06-16T07:02:31.321Z,151.88
2023-06-16T07:03:31.426Z,151.88
2023-06-16T07:04:31.106Z,151.88
2023-06-16T07:05:31.110Z,151.88
2023-06-16T07:06:31.103Z,151.88
2023-06-16T07:07:31.080Z,151.88
2023-06-16T07:08:31.244Z,151.88
2023-06-16T07:09:31.570Z,151.88
2023-06-16T07:10:31.077Z,151.88
2023-06-16T07:11:31.056Z,151.88
2023-06-16T07:12:31.093Z,151.88
2023-06-16T07:13:31.022Z,151.88
2023-06-16T07:14:33.864Z,157.50
2023-06-16T07:15:31.030Z,157.50
2023-06-16T07:16:31.035Z,151.88
2023-06-16T07:17:31.102Z,151.88
2023-06-16T07:18:35.545Z,151.88
2023-06-16T07:19:45.858Z,157.50
2023-06-16T07:20:30.965Z,151.88
2023-06-16T07:21:30.928Z,151.88
2023-06-16T07:22:30.910Z,151.88
2023-06-16T07:23:30.917Z,151.88
2023-06-16T07:24:30.948Z,157.50
2023-06-16T07:25:30.904Z,157.50
2023-06-16T07:26:30.871Z,157.50
2023-06-16T07:27:30.859Z,157.50
2023-06-16T07:28:30.839Z,157.50
2023-06-16T07:29:30.850Z,157.50
2023-06-16T07:30:30.876Z,157.50
2023-06-16T07:31:30.819Z,157.50
2023-06-16T07:32:30.854Z,157.50
2023-06-16T07:33:30.846Z,157.50
2023-06-16T07:34:30.792Z,157.50
2023-06-16T07:35:30.783Z,157.50
2023-06-16T07:36:30.802Z,157.50
2023-06-16T07:37:30.752Z,157.50
2023-06-16T07:38:30.788Z,157.50
2023-06-16T07:39:30.751Z,157.50
2023-06-16T07:40:30.723Z,157.50
2023-06-16T07:41:30.706Z,157.50
2023-06-16T07:42:30.712Z,157.50
2023-06-16T07:43:30.733Z,157.50
2023-06-16T07:44:30.680Z,157.50
2023-06-16T07:45:30.662Z,157.50
2023-06-16T07:46:30.699Z,157.50
2023-06-16T07:47:30.669Z,157.50
2023-06-16T07:48:30.649Z,157.50
2023-06-16T07:49:30.663Z,157.50
2023-06-16T07:50:30.924Z,157.50
2023-06-16T07:51:30.591Z,157.50
2023-06-16T07:52:30.604Z,157.50
2023-06-16T07:53:30.605Z,157.50
2023-06-16T07:54:30.578Z,157.50
2023-06-16T07:55:30.575Z,157.50
2023-06-16T07:56:30.615Z,157.50
2023-06-16T07:57:31.515Z,157.50
2023-06-16T07:58:30.556Z,157.50
2023-06-16T07:59:30.527Z,157.50
2023-06-16T08:00:30.501Z,157.50
2023-06-16T08:01:30.524Z,157.50
2023-06-16T08:02:30.549Z,157.50
2023-06-16T08:03:30.712Z,157.50
2023-06-16T08:04:30.538Z,157.50
2023-06-16T08:05:30.495Z,163.12
2023-06-16T08:06:30.460Z,163.12
2023-06-16T08:07:30.444Z,163.12
2023-06-16T08:08:30.454Z,163.12
2023-06-16T08:09:30.447Z,163.12
2023-06-16T08:10:30.388Z,163.12
2023-06-16T08:11:30.387Z,163.12
2023-06-16T08:12:30.402Z,163.12
2023-06-16T08:13:30.382Z,163.12
2023-06-16T08:14:30.356Z,163.12
2023-06-16T08:15:30.326Z,163.12
2023-06-16T08:16:30.411Z,163.12
2023-06-16T08:17:30.886Z,163.12
2023-06-16T08:18:30.314Z,163.12
2023-06-16T08:19:30.298Z,163.12
2023-06-16T08:20:30.304Z,163.12
2023-06-16T08:21:30.325Z,163.12
2023-06-16T08:22:30.347Z,163.12
2023-06-16T08:23:30.263Z,163.12
2023-06-16T08:24:30.348Z,163.12
2023-06-16T08:25:30.243Z,163.12
2023-06-16T08:26:30.233Z,163.12
2023-06-16T08:27:30.298Z,163.12
2023-06-16T08:28:30.207Z,163.12
2023-06-16T08:29:30.185Z,163.12
2023-06-16T08:30:30.183Z,163.12
2023-06-16T08:31:30.185Z,163.12
2023-06-16T08:32:30.203Z,163.12
2023-06-16T08:33:30.138Z,163.12
2023-06-16T08:34:30.161Z,163.12
2023-06-16T08:35:30.210Z,163.12
2023-06-16T08:36:30.130Z,163.12
2023-06-16T08:37:31.317Z,163.12
2023-06-16T08:38:30.090Z,168.75
2023-06-16T08:39:30.102Z,168.75
2023-06-16T08:40:30.118Z,168.75
2023-06-16T08:41:30.084Z,168.75
2023-06-16T08:42:30.057Z,168.75
2023-06-16T08:43:30.028Z,168.75
2023-06-16T08:44:30.034Z,168.75
2023-06-16T08:45:30.056Z,168.75
2023-06-16T08:46:30.041Z,168.75
2023-06-16T08:47:30.077Z,168.75
2023-06-16T08:48:30.004Z,168.75
2023-06-16T08:49:29.985Z,168.75
2023-06-16T08:50:29.997Z,168.75
2023-06-16T08:51:29.951Z,168.75
2023-06-16T08:52:42.554Z,168.75
2023-06-16T08:53:30.941Z,168.75
2023-06-16T08:54:29.916Z,168.75
2023-06-16T08:55:29.905Z,168.75
2023-06-16T08:56:29.902Z,168.75
2023-06-16T08:57:29.865Z,168.75
2023-06-16T08:58:29.882Z,168.75
2023-06-16T08:59:29.878Z,168.75
2023-06-16T09:00:29.845Z,168.75
2023-06-16T09:01:29.897Z,168.75
2023-06-16T09:02:29.871Z,168.75
2023-06-16T09:03:29.962Z,168.75
2023-06-16T09:04:29.799Z,168.75
2023-06-16T09:05:29.783Z,168.75
2023-06-16T09:06:29.777Z,168.75
2023-06-16T09:07:29.762Z,174.38
2023-06-16T09:08:29.767Z,174.38
2023-06-16T09:09:29.783Z,174.38
2023-06-16T09:10:29.747Z,174.38
2023-06-16T09:11:29.712Z,174.38
2023-06-16T09:12:29.704Z,174.38
2023-06-16T09:13:29.729Z,174.38
2023-06-16T09:14:29.679Z,174.38
2023-06-16T09:15:29.687Z,174.38
2023-06-16T09:16:29.740Z,174.38
2023-06-16T09:17:29.724Z,174.38
2023-06-16T09:18:29.671Z,174.38
2023-06-16T09:19:29.661Z,174.38
2023-06-16T09:20:29.627Z,174.38
2023-06-16T09:21:35.559Z,174.38
2023-06-16T09:22:30.606Z,174.38
2023-06-16T09:23:29.657Z,174.38
2023-06-16T09:24:29.599Z,174.38
2023-06-16T09:25:29.599Z,174.38
2023-06-16T09:26:29.566Z,174.38
2023-06-16T09:27:29.600Z,174.38
2023-06-16T09:28:29.528Z,180.00
2023-06-16T09:29:29.545Z,180.00
2023-06-16T09:30:29.509Z,180.00
2023-06-16T09:31:29.530Z,180.00
2023-06-16T09:32:29.499Z,180.00
2023-06-16T09:33:29.495Z,180.00
2023-06-16T09:34:29.465Z,180.00
2023-06-16T09:35:29.521Z,180.00
2023-06-16T09:36:29.471Z,180.00
2023-06-16T09:37:29.458Z,180.00
2023-06-16T09:38:29.420Z,180.00
2023-06-16T09:39:29.420Z,180.00
2023-06-16T09:40:29.438Z,180.00
2023-06-16T09:41:29.430Z,180.00
2023-06-16T09:42:29.403Z,180.00
2023-06-16T09:43:29.402Z,180.00
2023-06-16T09:44:29.383Z,180.00
2023-06-16T09:45:29.374Z,180.00
2023-06-16T09:46:29.519Z,180.00
2023-06-16T09:47:29.350Z,180.00
2023-06-16T09:48:29.332Z,180.00
2023-06-16T09:49:29.335Z,180.00
2023-06-16T09:50:29.315Z,180.00
2023-06-16T09:51:29.351Z,180.00
2023-06-16T09:52:29.265Z,185.62
2023-06-16T09:53:29.277Z,185.62
2023-06-16T09:54:29.292Z,185.62
2023-06-16T09:55:29.255Z,185.62
2023-06-16T09:56:29.232Z,185.62
2023-06-16T09:57:29.270Z,185.62
2023-06-16T09:58:41.204Z,185.62
2023-06-16T09:59:30.210Z,185.62
2023-06-16T10:00:29.194Z,185.62
2023-06-16T10:01:29.186Z,185.62
2023-06-16T10:02:29.227Z,185.62
2023-06-16T10:03:29.289Z,185.62
2023-06-16T10:04:29.182Z,185.62
2023-06-16T10:05:29.143Z,191.25
2023-06-16T10:06:29.163Z,191.25
2023-06-16T10:07:29.124Z,191.25
2023-06-16T10:08:29.096Z,191.25
2023-06-16T10:09:29.116Z,191.25
2023-06-16T10:10:29.160Z,191.25
2023-06-16T10:11:29.054Z,191.25
2023-06-16T10:12:29.112Z,191.25
2023-06-16T10:13:29.064Z,191.25
2023-06-16T10:14:29.037Z,196.88
2023-06-16T10:15:29.019Z,196.88
2023-06-16T10:16:29.184Z,196.88
2023-06-16T10:17:29.283Z,196.88
2023-06-16T10:18:29.160Z,196.88
2023-06-16T10:19:29.027Z,196.88
2023-06-16T10:20:28.965Z,196.88
2023-06-16T10:21:28.967Z,202.50
2023-06-16T10:22:28.952Z,202.50
2023-06-16T10:23:28.923Z,202.50
2023-06-16T10:24:29.026Z,202.50
2023-06-16T10:25:28.937Z,202.50
2023-06-16T10:26:28.921Z,202.50
2023-06-16T10:27:28.912Z,202.50
2023-06-16T10:28:28.890Z,202.50
2023-06-16T10:29:28.901Z,208.12
2023-06-16T10:30:28.855Z,208.12
2023-06-16T10:31:28.937Z,208.12
2023-06-16T10:32:28.932Z,208.12
2023-06-16T10:33:28.828Z,208.12
2023-06-16T10:34:28.805Z,213.75
2023-06-16T10:35:28.812Z,213.75
2023-06-16T10:36:28.829Z,213.75
2023-06-16T10:37:28.806Z,213.75
2023-06-16T10:38:28.802Z,213.75
2023-06-16T10:39:28.808Z,213.75
2023-06-16T10:40:28.818Z,213.75
2023-06-16T10:41:28.917Z,219.38
2023-06-16T10:42:28.814Z,219.38
2023-06-16T10:43:28.747Z,219.38
2023-06-16T10:44:28.702Z,219.38
2023-06-16T10:45:28.752Z,219.38
2023-06-16T10:46:28.806Z,219.38
2023-06-16T10:47:28.815Z,225.00
2023-06-16T10:48:28.692Z,225.00
2023-06-16T10:49:28.694Z,225.00
2023-06-16T10:50:28.646Z,230.62
2023-06-16T10:51:28.658Z,225.00
2023-06-16T10:52:28.620Z,225.00
2023-06-16T10:53:28.611Z,225.00
2023-06-16T10:54:28.609Z,225.00
2023-06-16T10:55:28.917Z,230.62
2023-06-16T10:56:28.595Z,225.00
2023-06-16T10:57:28.591Z,225.00
2023-06-16T10:58:28.559Z,230.62
2023-06-16T10:59:28.556Z,230.62
2023-06-16T11:00:28.637Z,230.62
2023-06-16T11:01:28.750Z,236.25
2023-06-16T11:02:28.622Z,236.25
2023-06-16T11:03:28.598Z,236.25
2023-06-16T11:04:28.565Z,236.25
2023-06-16T11:05:28.501Z,241.88
2023-06-16T11:06:28.491Z,241.88
2023-06-16T11:07:34.743Z,241.88
2023-06-16T11:08:29.497Z,241.88
2023-06-16T11:09:28.480Z,247.50
2023-06-16T11:10:28.451Z,247.50
2023-06-16T11:11:28.465Z,247.50
2023-06-16T11:12:28.408Z,253.12
2023-06-16T11:13:28.406Z,253.12
2023-06-16T11:14:28.421Z,253.12
2023-06-16T11:15:28.412Z,258.75
2023-06-16T11:16:28.470Z,258.75
2023-06-16T11:17:28.420Z,258.75
2023-06-16T11:18:28.385Z,264.38
2023-06-16T11:19:28.380Z,264.38
2023-06-16T11:20:28.358Z,270.00
2023-06-16T11:21:28.347Z,275.62
2023-06-16T11:22:28.300Z,286.88
2023-06-16T11:23:28.312Z,281.25
2023-06-16T11:24:28.373Z,275.62
2023-06-16T11:25:28.282Z,281.25
2023-06-16T11:26:28.255Z,286.88
2023-06-16T11:27:28.263Z,286.88
2023-06-16T11:28:28.271Z,286.88
2023-06-16T11:29:28.274Z,286.88
2023-06-16T11:30:28.217Z,292.50
2023-06-16T11:31:28.311Z,286.88
2023-06-16T11:32:28.220Z,286.88
2023-06-16T11:33:28.239Z,275.62
2023-06-16T11:34:28.183Z,275.62
2023-06-16T11:35:28.176Z,281.25
2023-06-16T11:36:28.145Z,270.00
2023-06-16T11:37:28.172Z,275.62
2023-06-16T11:38:28.156Z,292.50
2023-06-16T11:39:28.118Z,298.12
2023-06-16T11:40:28.112Z,298.12
2023-06-16T11:41:28.474Z,298.12
2023-06-16T11:42:28.124Z,303.75
2023-06-16T11:43:28.514Z,309.38
2023-06-16T11:44:28.094Z,303.75
2023-06-16T11:45:28.055Z,303.75
2023-06-16T11:46:28.095Z,309.38
2023-06-16T11:47:28.103Z,303.75
2023-06-16T11:48:28.034Z,315.00
2023-06-16T11:49:33.141Z,298.12
2023-06-16T11:50:28.999Z,247.50
2023-06-16T11:51:27.993Z,303.75
2023-06-16T11:52:27.999Z,320.62
2023-06-16T11:53:27.989Z,275.62
2023-06-16T11:54:27.982Z,315.00
2023-06-16T11:55:29.939Z,315.00
2023-06-16T11:56:27.969Z,303.75
2023-06-16T11:57:27.935Z,303.75
2023-06-16T11:58:27.979Z,298.12
2023-06-16T11:59:27.896Z,309.38
2023-06-16T12:00:28.002Z,315.00
2023-06-16T12:01:28.081Z,326.25
2023-06-16T12:02:27.929Z,326.25
2023-06-16T12:03:27.997Z,343.12
2023-06-16T12:04:27.878Z,354.38
2023-06-16T12:05:27.881Z,360.00
2023-06-16T12:06:27.860Z,360.00
2023-06-16T12:07:27.818Z,354.38
2023-06-16T12:08:27.798Z,360.00
2023-06-16T12:09:27.809Z,360.00
2023-06-16T12:10:27.791Z,360.00
2023-06-16T12:11:27.798Z,354.38
2023-06-16T12:12:27.772Z,354.38
2023-06-16T12:13:28.228Z,360.00
2023-06-16T12:14:27.746Z,360.00
2023-06-16T12:15:27.740Z,360.00
2023-06-16T12:16:27.833Z,365.62
2023-06-16T12:17:27.721Z,360.00
2023-06-16T12:18:27.695Z,371.25
2023-06-16T12:19:27.703Z,331.88
2023-06-16T12:20:27.699Z,281.25
2023-06-16T12:21:27.694Z,292.50
2023-06-16T12:22:27.670Z,393.75
2023-06-16T12:23:27.706Z,399.38
2023-06-16T12:24:27.688Z,405.00
2023-06-16T12:25:27.634Z,410.62
2023-06-16T12:26:27.658Z,410.62
2023-06-16T12:27:27.603Z,399.38
2023-06-16T12:28:27.591Z,399.38
2023-06-16T12:29:27.602Z,399.38
2023-06-16T12:30:27.612Z,405.00
2023-06-16T12:31:27.748Z,399.38
2023-06-16T12:32:27.557Z,399.38
2023-06-16T12:33:27.569Z,399.38
2023-06-16T12:34:27.530Z,399.38
2023-06-16T12:35:27.519Z,405.00
2023-06-16T12:36:27.511Z,405.00
2023-06-16T12:37:27.613Z,405.00
2023-06-16T12:38:27.479Z,399.38
2023-06-16T12:39:27.486Z,393.75
2023-06-16T12:40:27.493Z,399.38
2023-06-16T12:41:27.449Z,399.38
2023-06-16T12:42:27.452Z,399.38
2023-06-16T12:43:27.471Z,399.38
2023-06-16T12:44:27.440Z,405.00